createdAt,value
2023-04-07T00:00:52.682Z,25.27
2023-04-07T00:01:52.835Z,25.26
2023-04-07T00:02:52.802Z,25.26
2023-04-07T00:03:53.012Z,25.24
2023-04-07T00:04:52.848Z,25.26
2023-04-07T00:05:52.778Z,25.24
2023-04-07T00:06:52.791Z,25.27
2023-04-07T00:07:56.752Z,25.24
2023-04-07T00:08:52.967Z,25.24
2023-04-07T00:09:52.984Z,25.26
2023-04-07T00:10:53.027Z,25.27
2023-04-07T00:11:53.030Z,25.24
2023-04-07T00:12:53.064Z,25.23
2023-04-07T00:13:53.453Z,25.20
2023-04-07T00:14:53.112Z,25.24
2023-04-07T00:15:53.214Z,25.23
2023-04-07T00:16:53.149Z,25.24
2023-04-07T00:17:53.218Z,25.24
2023-04-07T00:18:53.221Z,25.24
2023-04-07T00:19:53.251Z,25.23
2023-04-07T00:20:53.299Z,25.23
2023-04-07T00:21:53.320Z,25.23
2023-04-07T00:22:53.419Z,25.23
2023-04-07T00:23:53.639Z,25.20
2023-04-07T00:24:53.432Z,25.23
2023-04-07T00:25:53.474Z,25.24
2023-04-07T00:26:53.539Z,25.20
2023-04-07T00:27:53.562Z,25.21
2023-04-07T00:28:53.590Z,25.23
2023-04-07T00:29:53.624Z,25.20
2023-04-07T00:30:53.692Z,25.21
2023-04-07T00:31:53.700Z,25.21
2023-04-07T00:32:53.748Z,25.23
2023-04-07T00:33:53.951Z,25.19
2023-04-07T00:34:53.818Z,25.20
2023-04-07T00:35:53.902Z,25.20
2023-04-07T00:36:53.903Z,25.21
2023-04-07T00:37:53.948Z,25.19
2023-04-07T00:38:53.992Z,25.20
2023-04-07T00:39:54.724Z,25.20
2023-04-07T00:40:54.081Z,25.21
2023-04-07T00:41:54.125Z,25.23
2023-04-07T00:42:54.196Z,25.19
2023-04-07T00:43:54.320Z,25.21
2023-04-07T00:44:54.247Z,25.19
2023-04-07T00:45:54.295Z,25.19
2023-04-07T00:46:54.355Z,25.19
2023-04-07T00:47:54.416Z,25.17
2023-04-07T00:48:54.444Z,25.20
2023-04-07T00:49:54.479Z,25.21
2023-04-07T00:50:54.534Z,25.20
2023-04-07T00:51:54.566Z,25.19
2023-04-07T00:52:54.623Z,25.19
2023-04-07T00:53:54.850Z,25.21
2023-04-07T00:54:54.725Z,25.21
2023-04-07T00:55:54.756Z,25.19
2023-04-07T00:56:54.815Z,25.19
2023-04-07T00:57:54.849Z,25.17
2023-04-07T00:58:54.911Z,25.20
2023-04-07T00:59:54.941Z,25.17
2023-04-07T01:00:54.995Z,25.20
2023-04-07T01:01:55.171Z,25.19
2023-04-07T01:02:55.241Z,25.19
2023-04-07T01:03:55.424Z,25.19
2023-04-07T01:04:55.226Z,25.20
2023-04-07T01:05:55.217Z,25.20
2023-04-07T01:06:55.264Z,25.20
2023-04-07T01:07:55.296Z,25.17
2023-04-07T01:08:55.327Z,25.19
2023-04-07T01:09:55.387Z,25.19
2023-04-07T01:10:55.427Z,25.16
2023-04-07T01:11:55.483Z,25.16
2023-04-07T01:12:55.519Z,25.20
2023-04-07T01:13:55.846Z,25.20
2023-04-07T01:14:55.635Z,25.20
2023-04-07T01:15:55.674Z,25.17
2023-04-07T01:16:55.690Z,25.17
2023-04-07T01:17:55.825Z,25.17
2023-04-07T01:18:55.788Z,25.17
2023-04-07T01:19:55.834Z,25.19
2023-04-07T01:20:55.876Z,25.19
2023-04-07T01:21:55.921Z,25.20
2023-04-07T01:22:55.966Z,25.17
2023-04-07T01:23:56.270Z,25.21
2023-04-07T01:24:56.067Z,25.17
2023-04-07T01:25:56.128Z,25.17
2023-04-07T01:26:56.178Z,25.20
2023-04-07T01:27:56.207Z,25.19
2023-04-07T01:28:56.255Z,25.19
2023-04-07T01:29:56.307Z,25.17
2023-04-07T01:30:56.402Z,25.19
2023-04-07T01:31:56.474Z,25.16
2023-04-07T01:32:56.547Z,25.19
2023-04-07T01:33:56.721Z,25.19
2023-04-07T01:34:56.546Z,25.16
2023-04-07T01:35:56.596Z,25.14
2023-04-07T01:36:56.714Z,25.17
2023-04-07T01:37:56.683Z,25.16
2023-04-07T01:38:56.734Z,25.14
2023-04-07T01:39:56.796Z,25.16
2023-04-07T01:40:56.841Z,25.16
2023-04-07T01:41:56.878Z,25.16
2023-04-07T01:42:56.933Z,25.16
2023-04-07T01:43:56.972Z,25.19
2023-04-07T01:44:57.033Z,25.16
2023-04-07T01:45:57.076Z,25.16
2023-04-07T01:46:57.218Z,25.17
2023-04-07T01:47:57.214Z,25.16
2023-04-07T01:48:57.210Z,25.19
2023-04-07T01:49:57.261Z,25.13
2023-04-07T01:50:57.314Z,25.16
2023-04-07T01:51:57.347Z,25.17
2023-04-07T01:52:57.386Z,25.17
2023-04-07T01:53:57.606Z,25.17
2023-04-07T01:54:57.483Z,25.17
2023-04-07T01:55:57.536Z,25.14
2023-04-07T01:56:57.619Z,25.16
2023-04-07T01:57:57.631Z,25.16
2023-04-07T01:58:57.682Z,25.16
2023-04-07T01:59:57.737Z,25.16
2023-04-07T02:00:57.789Z,25.14
2023-04-07T02:01:57.924Z,25.16
2023-04-07T02:02:58.169Z,25.13
2023-04-07T02:03:58.479Z,25.14
2023-04-07T02:04:57.986Z,25.16
2023-04-07T02:05:58.031Z,25.16
2023-04-07T02:06:58.088Z,25.14
2023-04-07T02:07:58.129Z,25.16
2023-04-07T02:08:58.170Z,25.16
2023-04-07T02:09:58.248Z,25.14
2023-04-07T02:10:58.310Z,25.19
2023-04-07T02:11:58.336Z,25.17
2023-04-07T02:12:58.390Z,25.14
2023-04-07T02:13:58.424Z,25.17
2023-04-07T02:14:58.473Z,25.14
2023-04-07T02:15:58.585Z,25.16
2023-04-07T02:16:58.569Z,25.16
2023-04-07T02:17:58.693Z,25.17
2023-04-07T02:18:58.733Z,25.14
2023-04-07T02:19:58.734Z,25.16
2023-04-07T02:20:58.777Z,25.14
2023-04-07T02:21:58.824Z,25.14
2023-04-07T02:22:58.874Z,25.14
2023-04-07T02:23:58.918Z,25.17
2023-04-07T02:24:58.968Z,25.17
2023-04-07T02:25:59.021Z,25.16
2023-04-07T02:26:59.070Z,25.16
2023-04-07T02:27:59.115Z,25.19
2023-04-07T02:28:59.162Z,25.16
2023-04-07T02:29:59.219Z,25.17
2023-04-07T02:30:59.256Z,25.14
2023-04-07T02:31:59.341Z,25.14
2023-04-07T02:32:59.406Z,25.13
2023-04-07T02:33:59.396Z,25.13
2023-04-07T02:34:59.479Z,25.14
2023-04-07T02:35:59.485Z,25.16
2023-04-07T02:36:59.574Z,25.16
2023-04-07T02:37:59.579Z,25.17
2023-04-07T02:38:59.629Z,25.14
2023-04-07T02:39:59.668Z,25.16
2023-04-07T02:40:59.721Z,25.13
2023-04-07T02:41:59.775Z,25.14
2023-04-07T02:42:59.805Z,25.13
2023-04-07T02:43:59.842Z,25.16
2023-04-07T02:44:59.905Z,25.14
2023-04-07T02:45:59.996Z,25.16
2023-04-07T02:46:59.979Z,25.13
2023-04-07T02:48:00.084Z,25.16
2023-04-07T02:49:00.063Z,25.16
2023-04-07T02:50:00.120Z,25.14
2023-04-07T02:51:00.195Z,25.14
2023-04-07T02:52:00.215Z,25.14
2023-04-07T02:53:00.255Z,25.14
2023-04-07T02:54:00.316Z,25.14
2023-04-07T02:55:00.342Z,25.13
2023-04-07T02:56:00.421Z,25.13
2023-04-07T02:57:00.446Z,25.13
2023-04-07T02:58:00.479Z,25.17
2023-04-07T02:59:00.527Z,25.12
2023-04-07T03:00:00.588Z,25.16
2023-04-07T03:01:00.662Z,25.16
2023-04-07T03:02:00.806Z,25.16
2023-04-07T03:03:00.916Z,25.14
2023-04-07T03:04:00.936Z,25.16
2023-04-07T03:05:00.769Z,25.12
2023-04-07T03:06:00.836Z,25.13
2023-04-07T03:07:00.897Z,25.13
2023-04-07T03:08:00.917Z,25.14
2023-04-07T03:09:00.970Z,25.16
2023-04-07T03:10:01.013Z,25.13
2023-04-07T03:11:01.067Z,25.13
2023-04-07T03:12:01.104Z,25.12
2023-04-07T03:13:01.146Z,25.13
2023-04-07T03:14:01.187Z,25.13
2023-04-07T03:15:01.229Z,25.14
2023-04-07T03:16:01.287Z,25.14
2023-04-07T03:17:01.357Z,25.14
2023-04-07T03:18:01.827Z,25.14
2023-04-07T03:19:01.410Z,25.14
2023-04-07T03:20:01.475Z,25.14
2023-04-07T03:21:01.511Z,25.12
2023-04-07T03:22:01.554Z,25.12
2023-04-07T03:23:01.599Z,25.13
2023-04-07T03:24:01.625Z,25.12
2023-04-07T03:25:01.676Z,25.14
2023-04-07T03:26:01.732Z,25.14
2023-04-07T03:27:01.770Z,25.14
2023-04-07T03:28:01.811Z,25.12
2023-04-07T03:29:01.896Z,25.13
2023-04-07T03:30:01.998Z,25.12
2023-04-07T03:31:02.031Z,25.14
2023-04-07T03:32:02.017Z,25.13
2023-04-07T03:33:02.140Z,25.14
2023-04-07T03:34:02.113Z,25.16
2023-04-07T03:35:02.154Z,25.16
2023-04-07T03:36:02.240Z,25.13
2023-04-07T03:37:02.237Z,25.13
2023-04-07T03:38:02.298Z,25.14
2023-04-07T03:39:02.357Z,25.13
2023-04-07T03:40:02.379Z,25.12
2023-04-07T03:41:02.419Z,25.13
2023-04-07T03:42:02.461Z,25.14
2023-04-07T03:43:02.516Z,25.16
2023-04-07T03:44:02.557Z,25.14
2023-04-07T03:45:02.629Z,25.14
2023-04-07T03:46:02.712Z,25.13
2023-04-07T03:47:02.700Z,25.14
2023-04-07T03:48:02.755Z,25.13
2023-04-07T03:49:02.785Z,25.14
2023-04-07T03:50:02.832Z,25.13
2023-04-07T03:51:02.885Z,25.12
2023-04-07T03:52:02.971Z,25.12
2023-04-07T03:53:02.981Z,25.10
2023-04-07T03:54:03.012Z,25.13
2023-04-07T03:55:03.085Z,25.13
2023-04-07T03:56:03.113Z,25.12
2023-04-07T03:57:03.161Z,25.12
2023-04-07T03:58:03.221Z,25.12
2023-04-07T03:59:03.250Z,25.13
2023-04-07T04:00:03.313Z,25.12
2023-04-07T04:01:03.355Z,25.13
2023-04-07T04:02:03.473Z,25.12
2023-04-07T04:03:03.494Z,25.13
2023-04-07T04:04:03.666Z,25.14
2023-04-07T04:05:03.543Z,25.14
2023-04-07T04:06:03.618Z,25.12
2023-04-07T04:07:03.651Z,25.14
2023-04-07T04:08:03.688Z,25.12
2023-04-07T04:09:03.751Z,25.13
2023-04-07T04:10:03.785Z,25.14
2023-04-07T04:11:03.862Z,25.13
2023-04-07T04:12:03.875Z,25.10
2023-04-07T04:13:03.919Z,25.13
2023-04-07T04:14:03.966Z,25.13
2023-04-07T04:15:04.016Z,25.10
2023-04-07T04:16:04.125Z,25.13
2023-04-07T04:17:05.267Z,25.12
2023-04-07T04:18:04.193Z,25.12
2023-04-07T04:19:04.178Z,25.12
2023-04-07T04:20:04.216Z,25.10
2023-04-07T04:21:04.245Z,25.10
2023-04-07T04:22:04.302Z,25.12
2023-04-07T04:23:04.360Z,25.13
2023-04-07T04:24:04.398Z,25.13
2023-04-07T04:25:04.443Z,25.13
2023-04-07T04:26:04.492Z,25.13
2023-04-07T04:27:04.561Z,25.12
2023-04-07T04:28:04.568Z,25.10
2023-04-07T04:29:04.619Z,25.13
2023-04-07T04:30:04.664Z,25.13
2023-04-07T04:31:04.754Z,25.14
2023-04-07T04:32:04.757Z,25.12
2023-04-07T04:33:04.897Z,25.10
2023-04-07T04:34:04.844Z,25.12
2023-04-07T04:35:04.894Z,25.10
2023-04-07T04:36:04.943Z,25.12
2023-04-07T04:37:05.045Z,25.12
2023-04-07T04:38:05.043Z,25.10
2023-04-07T04:39:05.093Z,25.10
2023-04-07T04:40:05.160Z,25.12
2023-04-07T04:41:05.204Z,25.12
2023-04-07T04:42:05.271Z,25.10
2023-04-07T04:43:05.337Z,25.12
2023-04-07T04:44:05.335Z,25.10
2023-04-07T04:45:05.393Z,25.12
2023-04-07T04:46:05.433Z,25.12
2023-04-07T04:47:05.538Z,25.12
2023-04-07T04:48:05.572Z,25.13
2023-04-07T04:49:05.587Z,25.13
2023-04-07T04:50:05.631Z,25.13
2023-04-07T04:51:05.692Z,25.13
2023-04-07T04:52:05.726Z,25.13
2023-04-07T04:53:05.782Z,25.13
2023-04-07T04:54:05.835Z,25.13
2023-04-07T04:55:05.881Z,25.12
2023-04-07T04:56:05.930Z,25.10
2023-04-07T04:57:05.977Z,25.13
2023-04-07T04:58:06.016Z,25.14
2023-04-07T04:59:06.092Z,25.14
2023-04-07T05:00:06.110Z,25.13
2023-04-07T05:01:06.214Z,25.16
2023-04-07T05:02:06.281Z,25.12
2023-04-07T05:03:06.431Z,25.10
2023-04-07T05:04:06.458Z,25.14
2023-04-07T05:05:06.458Z,25.12
2023-04-07T05:06:06.397Z,25.12
2023-04-07T05:07:06.463Z,25.16
2023-04-07T05:08:06.489Z,25.13
2023-04-07T05:09:06.534Z,25.12
2023-04-07T05:10:06.587Z,25.12
2023-04-07T05:11:06.637Z,25.14
2023-04-07T05:12:06.681Z,25.10
2023-04-07T05:13:06.743Z,25.12
2023-04-07T05:14:06.794Z,25.10
2023-04-07T05:15:06.968Z,25.13
2023-04-07T05:16:06.903Z,25.12
2023-04-07T05:17:06.937Z,25.12
2023-04-07T05:18:06.990Z,25.13
2023-04-07T05:19:07.042Z,25.13
2023-04-07T05:20:07.101Z,25.12
2023-04-07T05:21:07.153Z,25.12
2023-04-07T05:22:07.197Z,25.12
2023-04-07T05:23:07.241Z,25.12
2023-04-07T05:24:09.253Z,25.12
2023-04-07T05:25:07.286Z,25.13
2023-04-07T05:26:07.283Z,25.12
2023-04-07T05:27:07.270Z,25.10
2023-04-07T05:28:07.248Z,25.12
2023-04-07T05:29:07.245Z,25.10
2023-04-07T05:30:07.202Z,25.10
2023-04-07T05:31:08.049Z,25.12
2023-04-07T05:32:07.295Z,25.13
2023-04-07T05:33:07.254Z,25.12
2023-04-07T05:34:07.165Z,25.10
2023-04-07T05:35:07.188Z,25.13
2023-04-07T05:36:07.206Z,25.13
2023-04-07T05:37:07.157Z,25.12
2023-04-07T05:38:07.140Z,25.13
2023-04-07T05:39:07.162Z,25.13
2023-04-07T05:40:07.138Z,25.10
2023-04-07T05:41:07.172Z,25.09
2023-04-07T05:42:07.229Z,25.09
2023-04-07T05:43:07.296Z,25.12
2023-04-07T05:44:07.425Z,25.13
2023-04-07T05:45:07.381Z,25.12
2023-04-07T05:46:07.501Z,25.13
2023-04-07T05:47:07.527Z,25.12
2023-04-07T05:48:07.540Z,25.13
2023-04-07T05:50:07.558Z,25.12
2023-04-07T05:51:07.555Z,25.10
2023-04-07T05:52:07.543Z,25.13
2023-04-07T05:53:07.556Z,25.12
2023-04-07T05:54:07.541Z,25.12
2023-04-07T05:55:07.591Z,25.10
2023-04-07T05:56:07.521Z,25.12
2023-04-07T05:57:07.517Z,25.12
2023-04-07T05:58:07.533Z,25.10
2023-04-07T05:59:07.492Z,25.12
2023-04-07T06:00:07.470Z,25.12
2023-04-07T06:01:07.460Z,25.12
2023-04-07T06:02:07.562Z,25.12
2023-04-07T06:03:07.623Z,25.13
2023-04-07T06:04:07.450Z,25.12
2023-04-07T06:05:07.482Z,25.09
2023-04-07T06:06:07.438Z,25.12
2023-04-07T06:07:07.473Z,25.10
2023-04-07T06:08:07.443Z,25.12
2023-04-07T06:09:08.285Z,25.13
2023-04-07T06:10:07.436Z,25.12
2023-04-07T06:11:07.420Z,25.12
2023-04-07T06:12:07.415Z,25.13
2023-04-07T06:13:07.406Z,25.12
2023-04-07T06:14:07.389Z,25.12
2023-04-07T06:15:07.378Z,25.13
2023-04-07T06:16:07.462Z,25.12
2023-04-07T06:17:07.394Z,25.12
2023-04-07T06:18:07.421Z,25.12
2023-04-07T06:19:07.480Z,25.12
2023-04-07T06:20:07.500Z,25.12
2023-04-07T06:21:07.558Z,25.12
2023-04-07T06:22:07.604Z,25.12
2023-04-07T06:23:07.662Z,25.13
2023-04-07T06:24:07.714Z,25.12
2023-04-07T06:25:07.766Z,25.14
2023-04-07T06:26:07.819Z,25.13
2023-04-07T06:27:07.869Z,25.13
2023-04-07T06:28:07.926Z,25.13
2023-04-07T06:29:07.984Z,25.12
2023-04-07T06:30:08.021Z,25.13
2023-04-07T06:31:08.120Z,25.12
2023-04-07T06:32:08.129Z,25.14
2023-04-07T06:33:08.182Z,25.12
2023-04-07T06:34:08.244Z,25.13
2023-04-07T06:35:08.314Z,25.13
2023-04-07T06:36:08.353Z,25.13
2023-04-07T06:37:08.425Z,25.13
2023-04-07T06:38:08.460Z,25.13
2023-04-07T06:39:08.502Z,25.13
2023-04-07T06:40:08.564Z,25.14
2023-04-07T06:41:08.628Z,25.14
2023-04-07T06:42:08.687Z,25.14
2023-04-07T06:43:08.735Z,25.14
2023-04-07T06:44:09.674Z,25.14
2023-04-07T06:45:08.849Z,25.14
2023-04-07T06:46:09.058Z,25.14
2023-04-07T06:47:08.955Z,25.14
2023-04-07T06:48:09.038Z,25.16
2023-04-07T06:49:09.076Z,25.13
2023-04-07T06:50:09.134Z,25.17
2023-04-07T06:51:09.230Z,25.17
2023-04-07T06:52:09.231Z,25.17
2023-04-07T06:53:09.299Z,25.16
2023-04-07T06:54:09.338Z,25.16
2023-04-07T06:55:09.415Z,25.19
2023-04-07T06:56:09.453Z,25.20
2023-04-07T06:57:09.504Z,25.19
2023-04-07T06:58:09.560Z,25.16
2023-04-07T06:59:09.621Z,25.19
2023-04-07T07:00:09.698Z,25.17
2023-04-07T07:01:09.766Z,25.19
2023-04-07T07:02:10.107Z,25.20
2023-04-07T07:03:10.105Z,25.19
2023-04-07T07:04:10.030Z,25.16
2023-04-07T07:05:09.947Z,25.17
2023-04-07T07:06:09.993Z,25.20
2023-04-07T07:07:10.056Z,25.20
2023-04-07T07:08:10.116Z,25.19
2023-04-07T07:09:10.134Z,25.20
2023-04-07T07:10:10.188Z,25.21
2023-04-07T07:11:10.241Z,25.21
2023-04-07T07:12:10.302Z,25.20
2023-04-07T07:13:10.363Z,25.19
2023-04-07T07:14:10.412Z,25.20
2023-04-07T07:15:10.470Z,25.20
2023-04-07T07:16:10.614Z,25.19
2023-04-07T07:17:10.569Z,25.21
2023-04-07T07:18:10.656Z,25.21
2023-04-07T07:19:10.676Z,25.20
2023-04-07T07:20:10.753Z,25.24
2023-04-07T07:21:10.788Z,25.23
2023-04-07T07:22:10.841Z,25.23
2023-04-07T07:23:10.916Z,25.24
2023-04-07T07:24:10.948Z,25.24
2023-04-07T07:25:10.980Z,25.24
2023-04-07T07:26:11.040Z,25.27
2023-04-07T07:27:11.096Z,25.26
2023-04-07T07:28:11.151Z,25.24
2023-04-07T07:29:11.196Z,25.27
2023-04-07T07:30:11.241Z,25.30
2023-04-07T07:31:11.362Z,25.27
2023-04-07T07:32:11.349Z,25.30
2023-04-07T07:33:11.417Z,25.29
2023-04-07T07:34:11.446Z,25.29
2023-04-07T07:35:11.625Z,25.31
2023-04-07T07:36:11.592Z,25.30
2023-04-07T07:37:11.579Z,25.30
2023-04-07T07:38:11.624Z,25.30
2023-04-07T07:39:11.706Z,25.31
2023-04-07T07:40:11.704Z,25.33
2023-04-07T07:41:11.740Z,25.31
2023-04-07T07:42:11.785Z,25.31
2023-04-07T07:43:11.828Z,25.31
2023-04-07T07:44:11.874Z,25.30
2023-04-07T07:45:11.928Z,25.33
2023-04-07T07:46:12.019Z,25.34
2023-04-07T07:47:11.994Z,25.34
2023-04-07T07:48:12.051Z,25.33
2023-04-07T07:49:12.083Z,25.34
2023-04-07T07:50:12.140Z,25.36
2023-04-07T07:51:12.201Z,25.36
2023-04-07T07:52:12.239Z,25.34
2023-04-07T07:53:12.270Z,25.36
2023-04-07T07:54:12.337Z,25.36
2023-04-07T07:55:12.384Z,25.37
2023-04-07T07:56:12.398Z,25.37
2023-04-07T07:57:12.435Z,25.36
2023-04-07T07:58:12.490Z,25.37
2023-04-07T07:59:12.515Z,25.37
2023-04-07T08:00:12.566Z,25.40
2023-04-07T08:01:12.597Z,25.38
2023-04-07T08:02:12.684Z,25.38
2023-04-07T08:03:12.829Z,25.37
2023-04-07T08:04:12.826Z,25.37
2023-04-07T08:05:12.785Z,25.40
2023-04-07T08:06:12.808Z,25.38
2023-04-07T08:07:12.848Z,25.38
2023-04-07T08:08:12.901Z,25.37
2023-04-07T08:09:12.956Z,25.37
2023-04-07T08:10:12.982Z,25.40
2023-04-07T08:11:13.050Z,25.38
2023-04-07T08:12:13.076Z,25.40
2023-04-07T08:13:13.113Z,25.38
2023-04-07T08:14:13.142Z,25.42
2023-04-07T08:15:13.226Z,25.41
2023-04-07T08:16:13.252Z,25.40
2023-04-07T08:17:13.260Z,25.41
2023-04-07T08:18:13.343Z,25.40
2023-04-07T08:19:13.330Z,25.41
2023-04-07T08:20:13.395Z,25.41
2023-04-07T08:21:13.422Z,25.41
2023-04-07T08:22:13.483Z,25.40
2023-04-07T08:23:13.506Z,25.41
2023-04-07T08:24:13.553Z,25.42
2023-04-07T08:25:13.594Z,25.42
2023-04-07T08:26:13.634Z,25.42
2023-04-07T08:27:13.687Z,25.42
2023-04-07T08:28:13.696Z,25.42
2023-04-07T08:29:13.739Z,25.44
2023-04-07T08:30:13.788Z,25.42
2023-04-07T08:31:13.856Z,25.42
2023-04-07T08:32:13.865Z,25.44
2023-04-07T08:33:13.921Z,25.44
2023-04-07T08:34:13.959Z,25.45
2023-04-07T08:35:14.001Z,25.44
2023-04-07T08:36:14.054Z,25.44
2023-04-07T08:37:14.098Z,25.44
2023-04-07T08:38:14.134Z,25.44
2023-04-07T08:39:14.167Z,25.45
2023-04-07T08:40:14.207Z,25.45
2023-04-07T08:41:14.249Z,25.47
2023-04-07T08:42:14.294Z,25.47
2023-04-07T08:43:14.356Z,25.45
2023-04-07T08:44:14.369Z,25.47
2023-04-07T08:45:14.407Z,25.47
2023-04-07T08:46:14.449Z,25.47
2023-04-07T08:47:14.487Z,25.47
2023-04-07T08:48:14.565Z,25.47
2023-04-07T08:49:14.569Z,25.48
2023-04-07T08:50:14.655Z,25.47
2023-04-07T08:51:14.648Z,25.47
2023-04-07T08:52:14.701Z,25.48
2023-04-07T08:53:14.728Z,25.51
2023-04-07T08:54:14.768Z,25.49
2023-04-07T08:55:14.809Z,25.51
2023-04-07T08:56:14.856Z,25.51
2023-04-07T08:57:14.888Z,25.49
2023-04-07T08:58:14.922Z,25.49
2023-04-07T08:59:15.006Z,25.51
2023-04-07T09:00:15.008Z,25.52
2023-04-07T09:01:15.058Z,25.52
2023-04-07T09:02:15.125Z,25.55
2023-04-07T09:03:15.176Z,25.52
2023-04-07T09:04:15.230Z,25.52
2023-04-07T09:05:15.175Z,25.55
2023-04-07T09:06:15.208Z,25.55
2023-04-07T09:07:15.236Z,25.58
2023-04-07T09:08:15.267Z,25.57
2023-04-07T09:09:15.467Z,25.54
2023-04-07T09:10:15.324Z,25.58
2023-04-07T09:11:15.359Z,25.57
2023-04-07T09:12:15.393Z,25.58
2023-04-07T09:13:15.432Z,25.60
2023-04-07T09:14:15.482Z,25.58
2023-04-07T09:15:15.522Z,25.60
2023-04-07T09:16:15.557Z,25.58
2023-04-07T09:17:15.571Z,25.60
2023-04-07T09:18:15.598Z,25.62
2023-04-07T09:19:15.629Z,25.61
2023-04-07T09:20:15.665Z,25.61
2023-04-07T09:21:15.949Z,25.60
2023-04-07T09:22:15.724Z,25.62
2023-04-07T09:23:15.767Z,25.62
2023-04-07T09:24:15.791Z,25.61
2023-04-07T09:25:15.821Z,25.62
2023-04-07T09:26:15.860Z,25.62
2023-04-07T09:27:17.264Z,25.64
2023-04-07T09:28:16.066Z,25.62
2023-04-07T09:29:16.096Z,25.64
2023-04-07T09:30:16.120Z,25.64
2023-04-07T09:31:16.198Z,25.65
2023-04-07T09:32:16.262Z,25.64
2023-04-07T09:33:16.201Z,25.65
2023-04-07T09:34:16.246Z,25.65
2023-04-07T09:35:16.247Z,25.62
2023-04-07T09:36:16.317Z,25.66
2023-04-07T09:37:16.308Z,25.65
2023-04-07T09:38:16.315Z,25.68
2023-04-07T09:39:16.378Z,25.64
2023-04-07T09:40:16.370Z,25.64
2023-04-07T09:41:16.479Z,25.64
2023-04-07T09:42:16.428Z,25.64
2023-04-07T09:43:16.453Z,25.65
2023-04-07T09:44:16.492Z,25.65
2023-04-07T09:45:30.916Z,25.66
2023-04-07T09:46:16.578Z,25.65
2023-04-07T09:47:16.508Z,25.65
2023-04-07T09:48:16.468Z,25.64
2023-04-07T09:49:16.469Z,25.64
2023-04-07T09:50:16.456Z,25.65
2023-04-07T09:51:16.452Z,25.64
2023-04-07T09:52:16.450Z,25.64
2023-04-07T09:53:16.424Z,25.64
2023-04-07T09:54:16.405Z,25.64
2023-04-07T09:55:16.408Z,25.65
2023-04-07T09:56:16.405Z,25.65
2023-04-07T09:57:16.387Z,25.64
2023-04-07T09:58:16.396Z,25.65
2023-04-07T09:59:16.368Z,25.64
2023-04-07T10:00:16.356Z,25.64
2023-04-07T10:01:16.399Z,25.65
2023-04-07T10:02:16.357Z,25.66
2023-04-07T10:03:16.367Z,25.64
2023-04-07T10:04:16.422Z,25.65
2023-04-07T10:05:16.313Z,25.65
2023-04-07T10:06:16.291Z,25.65
2023-04-07T10:07:16.269Z,25.64
2023-04-07T10:08:16.274Z,25.65
2023-04-07T10:09:16.252Z,25.68
2023-04-07T10:10:16.258Z,25.66
2023-04-07T10:11:16.255Z,25.66
2023-04-07T10:12:16.243Z,25.68
2023-04-07T10:13:16.230Z,25.66
2023-04-07T10:14:16.220Z,25.68
2023-04-07T10:15:16.255Z,25.66
2023-04-07T10:16:16.237Z,25.71
2023-04-07T10:17:16.191Z,25.68
2023-04-07T10:18:16.172Z,25.69
2023-04-07T10:19:16.181Z,25.69
2023-04-07T10:20:16.130Z,25.68
2023-04-07T10:21:16.116Z,25.69
2023-04-07T10:22:16.155Z,25.71
2023-04-07T10:23:16.093Z,25.69
2023-04-07T10:24:16.064Z,25.69
2023-04-07T10:25:16.063Z,25.69
2023-04-07T10:26:16.059Z,25.71
2023-04-07T10:27:16.049Z,25.69
2023-04-07T10:28:16.038Z,25.71
2023-04-07T10:29:16.052Z,25.71
2023-04-07T10:30:16.055Z,25.69
2023-04-07T10:31:16.095Z,25.72
2023-04-07T10:32:16.095Z,25.69
2023-04-07T10:33:16.116Z,25.69
2023-04-07T10:34:16.138Z,25.71
2023-04-07T10:35:16.174Z,25.69
2023-04-07T10:36:16.186Z,25.71
2023-04-07T10:37:16.188Z,25.69
2023-04-07T10:38:16.248Z,25.72
2023-04-07T10:39:16.234Z,25.72
2023-04-07T10:40:16.245Z,25.73
2023-04-07T10:41:16.259Z,25.73
2023-04-07T10:42:16.277Z,25.73
2023-04-07T10:43:16.289Z,25.71
2023-04-07T10:44:16.308Z,25.72
2023-04-07T10:45:16.318Z,25.75
2023-04-07T10:46:16.356Z,25.72
2023-04-07T10:47:16.418Z,25.72
2023-04-07T10:48:16.367Z,25.71
2023-04-07T10:49:18.544Z,25.72
2023-04-07T10:50:16.361Z,25.73
2023-04-07T10:51:16.390Z,25.73
2023-04-07T10:52:16.343Z,25.75
2023-04-07T10:53:16.363Z,25.71
2023-04-07T10:54:16.318Z,25.72
2023-04-07T10:55:16.317Z,25.73
2023-04-07T10:56:16.306Z,25.73
2023-04-07T10:57:16.306Z,25.71
2023-04-07T10:58:16.291Z,25.76
2023-04-07T10:59:16.339Z,25.73
2023-04-07T11:00:16.282Z,25.75
2023-04-07T11:01:16.359Z,25.75
2023-04-07T11:02:16.445Z,25.75
2023-04-07T11:03:16.389Z,25.75
2023-04-07T11:04:16.340Z,25.76
2023-04-07T11:05:16.242Z,25.76
2023-04-07T11:06:16.248Z,25.76
2023-04-07T11:07:16.289Z,25.73
2023-04-07T11:08:16.205Z,25.73
2023-04-07T11:09:16.206Z,25.75
2023-04-07T11:10:16.229Z,25.75
2023-04-07T11:11:16.185Z,25.75
2023-04-07T11:12:16.177Z,25.75
2023-04-07T11:13:16.175Z,25.76
2023-04-07T11:14:16.161Z,25.75
2023-04-07T11:15:16.154Z,25.76
2023-04-07T11:16:16.119Z,25.76
2023-04-07T11:17:16.086Z,25.75
2023-04-07T11:18:16.077Z,25.78
2023-04-07T11:19:16.068Z,25.76
2023-04-07T11:20:16.083Z,25.76
2023-04-07T11:21:16.061Z,25.75
2023-04-07T11:22:28.559Z,25.76
2023-04-07T11:23:16.074Z,25.73
2023-04-07T11:24:16.035Z,25.76
2023-04-07T11:25:16.034Z,25.76
2023-04-07T11:26:16.042Z,25.75
2023-04-07T11:27:16.019Z,25.73
2023-04-07T11:28:16.016Z,25.75
2023-04-07T11:29:16.004Z,25.75
2023-04-07T11:30:16.070Z,25.73
2023-04-07T11:31:16.008Z,25.75
2023-04-07T11:32:15.955Z,25.72
2023-04-07T11:33:15.955Z,25.69
2023-04-07T11:34:15.946Z,25.71
2023-04-07T11:35:15.935Z,25.69
2023-04-07T11:36:15.985Z,25.71
2023-04-07T11:37:15.922Z,25.71
2023-04-07T11:38:15.909Z,25.68
2023-04-07T11:39:15.933Z,25.68
2023-04-07T11:40:15.897Z,25.68
2023-04-07T11:41:15.882Z,25.68
2023-04-07T11:42:15.841Z,25.68
2023-04-07T11:43:15.833Z,25.66
2023-04-07T11:44:15.820Z,25.66
2023-04-07T11:45:15.831Z,25.65
2023-04-07T11:46:15.836Z,25.65
2023-04-07T11:47:15.807Z,25.64
2023-04-07T11:48:15.804Z,25.65
2023-04-07T11:49:15.805Z,25.62
2023-04-07T11:50:15.839Z,25.64
2023-04-07T11:51:15.785Z,25.65
2023-04-07T11:52:15.774Z,25.62
2023-04-07T11:53:15.758Z,25.61
2023-04-07T11:54:15.755Z,25.62
2023-04-07T11:55:15.766Z,25.60
2023-04-07T11:56:15.737Z,25.61
2023-04-07T11:57:15.716Z,25.62
2023-04-07T11:58:15.698Z,25.60
2023-04-07T11:59:15.680Z,25.58
2023-04-07T12:00:15.691Z,25.58
2023-04-07T12:01:15.657Z,25.57
2023-04-07T12:02:15.755Z,25.55
2023-04-07T12:03:15.821Z,25.55
2023-04-07T12:04:15.796Z,25.54
2023-04-07T12:05:15.717Z,25.54
2023-04-07T12:06:15.585Z,25.51
2023-04-07T12:07:15.573Z,25.52
2023-04-07T12:08:15.561Z,25.52
2023-04-07T12:09:15.543Z,25.49
2023-04-07T12:10:15.512Z,25.52
2023-04-07T12:11:15.548Z,25.51
2023-04-07T12:12:15.535Z,25.49
2023-04-07T12:13:15.552Z,25.48
2023-04-07T12:14:15.565Z,25.49
2023-04-07T12:15:15.588Z,25.47
2023-04-07T12:16:15.674Z,25.49
2023-04-07T12:17:15.650Z,25.45
2023-04-07T12:18:15.669Z,25.48
2023-04-07T12:19:15.692Z,25.47
2023-04-07T12:20:15.736Z,25.45
2023-04-07T12:21:15.750Z,25.45
2023-04-07T12:22:15.766Z,25.45
2023-04-07T12:23:15.804Z,25.47
2023-04-07T12:24:15.830Z,25.47
2023-04-07T12:25:15.881Z,25.45
2023-04-07T12:26:15.880Z,25.44
2023-04-07T12:27:15.947Z,25.44
2023-04-07T12:28:15.939Z,25.44
2023-04-07T12:29:15.992Z,25.44
2023-04-07T12:30:15.999Z,25.44
2023-04-07T12:31:16.031Z,25.44
2023-04-07T12:32:16.122Z,25.42
2023-04-07T12:33:16.083Z,25.42
2023-04-07T12:34:16.117Z,25.42
2023-04-07T12:35:16.149Z,25.42
2023-04-07T12:36:16.183Z,25.42
2023-04-07T12:37:16.208Z,25.41
2023-04-07T12:38:16.242Z,25.38
2023-04-07T12:39:16.307Z,25.42
2023-04-07T12:40:16.314Z,25.40
2023-04-07T12:41:16.345Z,25.41
2023-04-07T12:42:16.377Z,25.40
2023-04-07T12:43:16.443Z,25.38
2023-04-07T12:44:16.455Z,25.38
2023-04-07T12:45:16.508Z,25.40
2023-04-07T12:46:16.570Z,25.37
2023-04-07T12:47:16.558Z,25.41
2023-04-07T12:48:16.589Z,25.37
2023-04-07T12:49:16.622Z,25.37
2023-04-07T12:50:16.657Z,25.36
2023-04-07T12:51:16.760Z,25.40
2023-04-07T12:52:16.744Z,25.38
2023-04-07T12:53:16.774Z,25.37
2023-04-07T12:54:16.808Z,25.34